createdAt,value
2023-04-27T00:00:25.911Z,2.31
2023-04-27T00:02:55.499Z,2.29
2023-04-27T00:05:23.901Z,2.29
2023-04-27T00:07:52.122Z,2.28
2023-04-27T00:10:20.329Z,2.29
2023-04-27T00:12:48.498Z,2.28
2023-04-27T00:15:16.922Z,2.26
2023-04-27T00:17:45.059Z,2.25
2023-04-27T00:20:14.727Z,2.26
2023-04-27T00:22:42.869Z,2.28
2023-04-27T00:25:11.870Z,2.27
2023-04-27T00:27:40.302Z,2.26
2023-04-27T00:30:09.562Z,2.23
2023-04-27T00:32:37.682Z,2.19
2023-04-27T00:35:06.226Z,2.18
2023-04-27T00:37:35.674Z,2.18
2023-04-27T00:40:05.971Z,2.18
2023-04-27T00:42:34.478Z,2.19
2023-04-27T00:45:03.359Z,2.19
2023-04-27T00:47:31.838Z,2.17
2023-04-27T00:49:59.901Z,2.16
2023-04-27T00:52:28.200Z,2.17
2023-04-27T00:54:58.861Z,2.17
2023-04-27T00:57:26.962Z,2.17
2023-04-27T00:59:55.086Z,2.17
2023-04-27T01:02:23.312Z,2.17
2023-04-27T01:04:52.123Z,2.16
2023-04-27T01:07:20.684Z,2.15
2023-04-27T01:09:49.073Z,2.11
2023-04-27T01:12:18.568Z,2.07
2023-04-27T01:14:46.681Z,2.08
2023-04-27T01:17:15.208Z,2.06
2023-04-27T01:19:45.043Z,2.02
2023-04-27T01:22:15.210Z,1.97
2023-04-27T01:24:44.716Z,1.94
2023-04-27T01:27:12.767Z,1.93
2023-04-27T01:29:40.913Z,1.90
2023-04-27T01:32:10.308Z,1.86
2023-04-27T01:34:38.436Z,1.84
2023-04-27T01:37:07.218Z,1.82
2023-04-27T01:39:35.541Z,1.80
2023-04-27T01:42:05.243Z,1.79
2023-04-27T01:44:33.318Z,1.78
2023-04-27T01:47:01.862Z,1.76
2023-04-27T01:49:30.145Z,1.74
2023-04-27T01:51:58.550Z,1.75
2023-04-27T01:54:28.675Z,1.75
2023-04-27T01:56:58.713Z,1.72
2023-04-27T01:59:28.264Z,1.68
2023-04-27T02:01:56.631Z,1.66
2023-04-27T02:04:25.980Z,1.62
2023-04-27T02:06:54.070Z,1.59
2023-04-27T02:09:22.541Z,1.59
2023-04-27T02:11:50.710Z,1.58
2023-04-27T02:14:18.862Z,1.56
2023-04-27T02:16:49.877Z,1.55
2023-04-27T02:19:18.528Z,1.54
2023-04-27T02:21:46.723Z,1.54
2023-04-27T02:24:14.827Z,1.52
2023-04-27T02:26:43.572Z,1.50
2023-04-27T02:29:12.233Z,1.48
2023-04-27T02:31:41.089Z,1.48
2023-04-27T02:34:10.762Z,1.44
2023-04-27T02:36:38.821Z,1.46
2023-04-27T02:39:06.947Z,1.46
2023-04-27T02:41:35.859Z,1.46
2023-04-27T02:44:03.966Z,1.44
2023-04-27T02:46:32.956Z,1.43
2023-04-27T02:49:01.240Z,1.42
2023-04-27T02:51:32.066Z,1.44
2023-04-27T02:54:00.177Z,1.47
2023-04-27T02:56:28.350Z,1.50
2023-04-27T02:58:57.415Z,1.50
2023-04-27T03:01:25.667Z,1.55
2023-04-27T03:03:54.049Z,1.58
2023-04-27T03:06:22.324Z,1.59
2023-04-27T03:08:51.848Z,1.62
2023-04-27T03:11:19.880Z,1.64
2023-04-27T03:13:48.380Z,1.69
2023-04-27T03:16:16.660Z,1.74
2023-04-27T03:18:44.756Z,1.78
2023-04-27T03:21:13.119Z,1.79
2023-04-27T03:23:41.819Z,1.81
2023-04-27T03:26:13.384Z,1.83
2023-04-27T03:28:42.738Z,1.83
2023-04-27T03:31:11.483Z,1.86
2023-04-27T03:33:39.638Z,1.92
2023-04-27T03:36:08.406Z,1.96
2023-04-27T03:38:36.608Z,1.99
2023-04-27T03:41:05.770Z,2.03
2023-04-27T03:43:35.221Z,2.04
2023-04-27T03:46:04.378Z,2.06
2023-04-27T03:48:32.790Z,2.09
2023-04-27T03:51:01.749Z,2.10
2023-04-27T03:53:30.217Z,2.14
2023-04-27T03:55:58.285Z,2.19
2023-04-27T03:58:28.601Z,2.23
2023-04-27T04:01:24.947Z,2.24
2023-04-27T04:03:53.295Z,2.26
2023-04-27T04:06:21.635Z,2.28
2023-04-27T04:08:50.143Z,2.29
2023-04-27T04:11:18.784Z,2.34
2023-04-27T04:13:47.474Z,2.34
2023-04-27T04:16:15.869Z,2.38
2023-04-27T04:18:45.405Z,2.41
2023-04-27T04:21:13.515Z,2.42
2023-04-27T04:23:42.141Z,2.44
2023-04-27T04:26:10.285Z,2.48
2023-04-27T04:28:38.770Z,2.50
2023-04-27T04:31:09.878Z,2.53
2023-04-27T04:33:38.228Z,2.56
2023-04-27T04:36:08.882Z,2.59
2023-04-27T04:38:37.022Z,2.62
2023-04-27T04:41:07.326Z,2.65
2023-04-27T04:43:35.462Z,2.69
2023-04-27T04:46:07.502Z,2.74
2023-04-27T04:48:36.841Z,2.78
2023-04-27T04:51:06.489Z,2.79
2023-04-27T04:53:37.390Z,2.85
2023-04-27T04:56:11.853Z,2.89
2023-04-27T04:58:40.091Z,2.93
2023-04-27T05:01:08.752Z,3.00
2023-04-27T05:03:36.975Z,3.04
2023-04-27T05:06:05.368Z,3.10
2023-04-27T05:08:33.400Z,3.17
2023-04-27T05:11:02.824Z,3.25
2023-04-27T05:13:31.117Z,3.37
2023-04-27T05:15:59.543Z,3.46
2023-04-27T05:18:27.707Z,3.49
2023-04-27T05:20:56.417Z,3.56
2023-04-27T05:23:24.539Z,3.67
2023-04-27T05:25:52.726Z,3.79
2023-04-27T05:28:22.254Z,3.86
2023-04-27T05:30:50.285Z,3.93
2023-04-27T05:33:18.336Z,4.03
2023-04-27T05:35:46.493Z,4.07
2023-04-27T05:38:17.529Z,4.09
2023-04-27T05:40:45.727Z,4.16
2023-04-27T05:43:14.283Z,4.27
2023-04-27T05:45:43.823Z,4.39
2023-04-27T05:48:12.066Z,4.48
2023-04-27T05:50:40.149Z,4.58
2023-04-27T05:53:08.275Z,4.69
2023-04-27T05:55:37.647Z,4.78
2023-04-27T05:58:08.999Z,4.85
2023-04-27T06:00:38.471Z,4.85
2023-04-27T06:03:08.138Z,4.92
2023-04-27T06:05:36.521Z,4.95
2023-04-27T06:08:05.091Z,4.98
2023-04-27T06:10:33.188Z,5.03
2023-04-27T06:13:01.222Z,5.12
2023-04-27T06:15:29.376Z,5.30
2023-04-27T06:17:57.514Z,5.50
2023-04-27T06:20:27.081Z,5.65
2023-04-27T06:22:55.251Z,5.81
2023-04-27T06:25:26.624Z,5.94
2023-04-27T06:27:55.427Z,6.14
2023-04-27T06:30:23.701Z,6.34
2023-04-27T06:32:52.124Z,6.53
2023-04-27T06:35:21.646Z,6.72
2023-04-27T06:37:51.563Z,6.90
2023-04-27T06:40:19.768Z,7.12
2023-04-27T06:42:47.882Z,7.35
2023-04-27T06:45:15.988Z,7.40
2023-04-27T06:47:44.141Z,7.42
2023-04-27T06:50:12.507Z,7.51
2023-04-27T06:52:40.603Z,7.60
2023-04-27T06:55:10.991Z,7.69
2023-04-27T06:57:39.109Z,7.79
2023-04-27T07:00:08.960Z,8.00
2023-04-27T07:02:37.124Z,8.12
2023-04-27T07:05:06.117Z,8.16
2023-04-27T07:07:34.378Z,8.29
2023-04-27T07:10:02.750Z,8.38
2023-04-27T07:12:32.750Z,8.26
2023-04-27T07:15:00.881Z,8.41
2023-04-27T07:17:29.374Z,8.75
2023-04-27T07:19:57.662Z,8.94
2023-04-27T07:22:25.756Z,8.99
2023-04-27T07:24:53.836Z,8.98
2023-04-27T07:27:22.327Z,8.99
2023-04-27T07:29:51.789Z,9.17
2023-04-27T07:32:20.267Z,9.39
2023-04-27T07:34:53.360Z,9.48
2023-04-27T07:37:22.429Z,9.41
2023-04-27T07:39:52.045Z,9.59
2023-04-27T07:42:20.217Z,9.57
2023-04-27T07:44:50.466Z,9.66
2023-04-27T07:47:21.907Z,9.72
2023-04-27T07:49:49.989Z,9.68
2023-04-27T07:52:18.088Z,9.90
2023-04-27T07:54:46.374Z,10.14
2023-04-27T07:57:14.436Z,10.59
2023-04-27T07:59:42.525Z,10.51
2023-04-27T08:02:18.350Z,10.40
2023-04-27T08:04:49.979Z,10.21
2023-04-27T08:07:18.713Z,10.19
2023-04-27T08:09:47.599Z,10.29
2023-04-27T08:12:15.730Z,10.40
2023-04-27T08:14:44.300Z,10.51
2023-04-27T08:17:12.536Z,10.43
2023-04-27T08:19:41.004Z,10.60
2023-04-27T08:22:10.672Z,10.60
2023-04-27T08:24:38.736Z,10.79
2023-04-27T08:27:07.211Z,11.04
2023-04-27T08:29:35.503Z,11.07
2023-04-27T08:32:04.074Z,11.07
2023-04-27T08:34:32.974Z,11.20
2023-04-27T08:37:02.359Z,11.17
2023-04-27T08:39:31.889Z,11.15
2023-04-27T08:42:00.444Z,11.02
2023-04-27T08:44:28.913Z,11.23
2023-04-27T08:46:57.135Z,11.15
2023-04-27T08:49:25.221Z,11.18
2023-04-27T08:51:53.346Z,11.30
2023-04-27T08:54:21.973Z,11.33
2023-04-27T08:56:51.468Z,11.68
2023-04-27T08:59:19.539Z,11.88
2023-04-27T09:01:49.013Z,11.88
2023-04-27T09:04:18.024Z,11.89
2023-04-27T09:06:46.565Z,11.92
2023-04-27T09:09:23.197Z,11.95
2023-04-27T09:11:52.704Z,12.09
2023-04-27T09:14:21.304Z,12.19
2023-04-27T09:16:56.185Z,12.11
2023-04-27T09:19:27.636Z,11.58
2023-04-27T09:22:05.522Z,11.42
2023-04-27T09:24:33.688Z,11.18
2023-04-27T09:27:05.145Z,10.71
2023-04-27T09:29:34.630Z,11.15
2023-04-27T09:32:02.869Z,11.76
2023-04-27T09:34:40.836Z,12.55
2023-04-27T09:37:09.808Z,12.92
2023-04-27T09:39:38.050Z,13.07
2023-04-27T09:42:08.482Z,12.77
2023-04-27T09:44:36.608Z,12.23
2023-04-27T09:47:04.943Z,12.29
2023-04-27T09:49:33.851Z,12.05
2023-04-27T09:52:02.853Z,11.64
2023-04-27T09:54:32.332Z,12.32
2023-04-27T09:57:16.025Z,12.69
2023-04-27T09:59:58.862Z,13.53
2023-04-27T10:02:27.041Z,14.03
2023-04-27T10:05:18.916Z,14.69
2023-04-27T10:07:47.329Z,14.97
2023-04-27T10:10:19.193Z,15.50
2023-04-27T10:12:58.548Z,14.71
2023-04-27T10:15:30.240Z,15.18
2023-04-27T10:18:05.401Z,15.72
2023-04-27T10:20:34.213Z,16.10
2023-04-27T10:23:02.376Z,16.45
2023-04-27T10:25:31.718Z,15.81
2023-04-27T10:28:01.767Z,16.40
2023-04-27T10:30:33.313Z,16.21
2023-04-27T10:33:06.506Z,15.84
2023-04-27T10:35:34.827Z,16.20
2023-04-27T10:38:09.546Z,16.78
2023-04-27T10:40:38.149Z,17.43
2023-04-27T10:43:11.426Z,17.77
2023-04-27T10:45:39.494Z,18.04
2023-04-27T10:48:08.064Z,18.20
2023-04-27T10:50:37.047Z,17.19
2023-04-27T10:53:06.207Z,17.00
2023-04-27T10:55:35.064Z,17.27
2023-04-27T10:58:04.323Z,17.37
2023-04-27T11:00:34.744Z,17.63
2023-04-27T11:03:12.590Z,17.82
2023-04-27T11:05:41.358Z,17.73
2023-04-27T11:08:10.022Z,17.76
2023-04-27T11:10:40.158Z,18.41
2023-04-27T11:13:10.326Z,17.90
2023-04-27T11:15:50.079Z,18.41
2023-04-27T11:18:19.277Z,18.06
2023-04-27T11:20:49.104Z,17.31
2023-04-27T11:23:25.628Z,16.97
2023-04-27T11:25:54.491Z,16.12
2023-04-27T11:28:22.721Z,15.87
2023-04-27T11:30:58.240Z,15.55
2023-04-27T11:33:26.404Z,15.29
2023-04-27T11:35:54.510Z,15.54
2023-04-27T11:38:23.362Z,15.83
2023-04-27T11:41:00.519Z,16.14
2023-04-27T11:43:28.656Z,16.15
2023-04-27T11:45:58.987Z,16.21
2023-04-27T11:48:28.396Z,16.78
2023-04-27T11:50:59.193Z,16.12
2023-04-27T11:53:31.619Z,15.48
2023-04-27T11:56:01.159Z,15.23
2023-04-27T11:58:29.322Z,15.14
2023-04-27T12:00:59.317Z,15.56
2023-04-27T12:03:28.974Z,15.75
2023-04-27T12:06:04.150Z,15.50
2023-04-27T12:08:40.102Z,15.24
2023-04-27T12:11:08.241Z,15.03
2023-04-27T12:13:36.285Z,14.80
2023-04-27T12:16:06.980Z,14.52
2023-04-27T12:18:35.697Z,14.37
2023-04-27T12:21:07.740Z,14.70
2023-04-27T12:23:36.649Z,14.55
2023-04-27T12:26:05.199Z,13.99
2023-04-27T12:28:33.286Z,14.13
2023-04-27T12:31:04.008Z,14.25
2023-04-27T12:33:33.942Z,14.32
2023-04-27T12:36:02.027Z,14.26
2023-04-27T12:38:30.116Z,14.44
2023-04-27T12:40:58.193Z,14.51
2023-04-27T12:43:26.408Z,14.03
2023-04-27T12:45:55.037Z,14.30
2023-04-27T12:48:23.651Z,14.50
2023-04-27T12:50:53.209Z,14.43
2023-04-27T12:53:27.449Z,14.70
2023-04-27T12:55:55.945Z,14.89
2023-04-27T12:58:24.416Z,15.08
2023-04-27T13:00:52.955Z,14.99
2023-04-27T13:03:21.186Z,14.53
2023-04-27T13:05:49.794Z,14.60
2023-04-27T13:08:19.301Z,14.58
2023-04-27T13:10:47.403Z,14.31
2023-04-27T13:13:15.909Z,14.27
2023-04-27T13:15:44.116Z,14.24
2023-04-27T13:18:12.341Z,14.36
2023-04-27T13:20:40.463Z,14.55
2023-04-27T13:23:08.819Z,14.30
2023-04-27T13:25:38.271Z,14.26
2023-04-27T13:28:07.529Z,14.36
2023-04-27T13:30:35.814Z,14.32
2023-04-27T13:33:18.592Z,14.29
2023-04-27T13:35:50.545Z,14.21
2023-04-27T13:38:18.732Z,14.30
2023-04-27T13:40:48.613Z,14.36
2023-04-27T13:43:16.743Z,14.38
2023-04-27T13:45:45.396Z,14.27
2023-04-27T13:48:13.681Z,14.21
2023-04-27T13:50:41.942Z,14.26
2023-04-27T13:53:10.089Z,14.58
2023-04-27T13:55:38.657Z,14.76
2023-04-27T13:58:08.234Z,14.65
2023-04-27T14:00:37.446Z,14.65
2023-04-27T14:03:05.882Z,14.55
2023-04-27T14:05:34.117Z,14.67
2023-04-27T14:08:02.687Z,14.55
2023-04-27T14:10:31.149Z,14.73
2023-04-27T14:12:59.234Z,14.93
2023-04-27T14:15:29.193Z,14.91
2023-04-27T14:17:57.315Z,14.57
2023-04-27T14:20:27.312Z,14.47
2023-04-27T14:22:58.299Z,14.39
2023-04-27T14:25:27.315Z,14.63
2023-04-27T14:27:55.410Z,14.84
2023-04-27T14:30:24.031Z,14.96
2023-04-27T14:32:53.954Z,15.01
2023-04-27T14:35:23.758Z,15.10
2023-04-27T14:37:52.136Z,14.99
2023-04-27T14:40:20.483Z,14.99
2023-04-27T14:42:48.619Z,14.85
2023-04-27T14:45:18.957Z,14.92
2023-04-27T14:47:48.528Z,14.83
2023-04-27T14:50:18.170Z,14.64
2023-04-27T14:52:46.389Z,14.18
2023-04-27T14:55:15.307Z,14.21
2023-04-27T14:57:43.396Z,14.05
2023-04-27T15:00:14.651Z,13.98
2023-04-27T15:02:43.010Z,13.74
2023-04-27T15:05:11.507Z,13.93
2023-04-27T15:07:41.289Z,13.74
2023-04-27T15:10:10.906Z,13.83
2023-04-27T15:12:38.997Z,14.03
2023-04-27T15:15:10.709Z,13.96
2023-04-27T15:17:39.091Z,13.90
2023-04-27T15:20:08.688Z,13.96
2023-04-27T15:22:36.936Z,14.05
2023-04-27T15:25:08.423Z,13.69
2023-04-27T15:27:37.077Z,13.62
2023-04-27T15:30:06.251Z,13.46
2023-04-27T15:32:34.482Z,13.28
2023-04-27T15:35:02.621Z,12.90
2023-04-27T15:37:30.810Z,12.87
2023-04-27T15:39:59.222Z,12.99
2023-04-27T15:42:28.815Z,13.01
2023-04-27T15:44:57.375Z,13.15
2023-04-27T15:47:25.519Z,13.21
2023-04-27T15:49:57.440Z,13.10
2023-04-27T15:52:27.108Z,13.02
2023-04-27T15:54:55.991Z,12.85
2023-04-27T15:57:24.027Z,12.89
2023-04-27T15:59:53.713Z,12.83
2023-04-27T16:02:24.512Z,12.90
2023-04-27T16:04:57.685Z,12.72
2023-04-27T16:07:25.731Z,12.68
2023-04-27T16:09:58.483Z,12.65
2023-04-27T16:12:28.186Z,12.37
2023-04-27T16:14:58.139Z,12.33
2023-04-27T16:17:26.407Z,12.32
2023-04-27T16:19:54.599Z,12.27
2023-04-27T16:22:23.507Z,12.20
2023-04-27T16:24:51.876Z,12.17
2023-04-27T16:27:20.840Z,12.15
2023-04-27T16:29:49.362Z,12.06
2023-04-27T16:32:21.752Z,12.04
2023-04-27T16:34:49.878Z,12.01
2023-04-27T16:37:18.065Z,11.89
2023-04-27T16:39:46.530Z,11.88
2023-04-27T16:42:19.793Z,11.86
2023-04-27T16:44:47.986Z,11.82
2023-04-27T16:47:16.087Z,11.75
2023-04-27T16:49:45.914Z,11.66
2023-04-27T16:52:14.054Z,11.54
2023-04-27T16:54:42.273Z,11.46
2023-04-27T16:57:10.422Z,11.46
2023-04-27T16:59:38.646Z,11.38
2023-04-27T17:02:23.137Z,11.43
2023-04-27T17:04:53.952Z,11.43
2023-04-27T17:07:22.389Z,11.28
2023-04-27T17:09:50.506Z,11.16
2023-04-27T17:12:18.571Z,11.16
2023-04-27T17:14:46.795Z,11.10
2023-04-27T17:17:15.336Z,11.02
2023-04-27T17:19:43.433Z,11.00
2023-04-27T17:22:14.819Z,10.95
2023-04-27T17:24:42.862Z,10.91
2023-04-27T17:27:11.507Z,10.81
2023-04-27T17:29:44.163Z,10.75
2023-04-27T17:32:12.731Z,10.64
2023-04-27T17:34:42.983Z,10.53
2023-04-27T17:37:12.709Z,10.39
2023-04-27T17:39:41.307Z,10.23
2023-04-27T17:42:12.494Z,10.15
2023-04-27T17:44:42.383Z,10.08
2023-04-27T17:47:10.602Z,9.92
2023-04-27T17:49:38.658Z,9.86
2023-04-27T17:52:06.787Z,9.69
2023-04-27T17:54:36.274Z,9.57
2023-04-27T17:57:04.477Z,9.50
2023-04-27T17:59:33.173Z,9.46
2023-04-27T18:02:01.440Z,9.39
2023-04-27T18:04:29.708Z,9.29
2023-04-27T18:06:58.092Z,9.17
2023-04-27T18:09:27.111Z,9.08
2023-04-27T18:11:57.155Z,8.97
2023-04-27T18:14:25.626Z,8.84
2023-04-27T18:16:53.898Z,8.73
2023-04-27T18:19:22.057Z,8.64
2023-04-27T18:21:50.853Z,8.59
2023-04-27T18:24:19.217Z,8.48
2023-04-27T18:26:47.962Z,8.39
2023-04-27T18:29:18.011Z,8.30
2023-04-27T18:31:46.508Z,8.21
2023-04-27T18:34:14.936Z,8.16
2023-04-27T18:36:43.143Z,8.12
2023-04-27T18:39:11.303Z,8.05
2023-04-27T18:41:40.130Z,7.94
2023-04-27T18:44:08.270Z,7.86
2023-04-27T18:46:37.803Z,7.77
2023-04-27T18:49:05.875Z,7.72
2023-04-27T18:51:33.962Z,7.69
2023-04-27T18:54:02.040Z,7.67
2023-04-27T18:56:30.071Z,7.62
2023-04-27T18:59:00.339Z,7.57
2023-04-27T19:01:30.189Z,7.55
2023-04-27T19:03:59.883Z,7.52
2023-04-27T19:06:28.058Z,7.51
2023-04-27T19:08:56.571Z,7.48
2023-04-27T19:11:25.544Z,7.44
2023-04-27T19:13:53.974Z,7.39
2023-04-27T19:16:22.079Z,7.35
2023-04-27T19:18:50.288Z,7.34
2023-04-27T19:21:19.856Z,7.31
2023-04-27T19:23:48.009Z,7.25
2023-04-27T19:26:16.134Z,7.24
2023-04-27T19:28:44.206Z,7.23
2023-04-27T19:31:12.486Z,7.21
2023-04-27T19:33:46.835Z,7.19
2023-04-27T19:36:15.364Z,7.15
2023-04-27T19:38:44.850Z,7.10
2023-04-27T19:41:14.087Z,7.05
2023-04-27T19:43:42.292Z,6.98
2023-04-27T19:46:11.511Z,6.93
2023-04-27T19:48:42.508Z,6.87
2023-04-27T19:51:11.315Z,6.82
2023-04-27T19:53:39.368Z,6.74
2023-04-27T19:56:08.854Z,6.69
2023-04-27T19:58:37.270Z,6.61
2023-04-27T20:01:06.323Z,6.54
2023-04-27T20:03:35.631Z,6.49
2023-04-27T20:06:04.184Z,6.49
2023-04-27T20:08:34.162Z,6.45
2023-04-27T20:11:02.253Z,6.38
2023-04-27T20:13:31.716Z,6.32
2023-04-27T20:16:00.205Z,6.32
2023-04-27T20:18:31.633Z,6.26
2023-04-27T20:20:59.796Z,6.29
2023-04-27T20:23:27.870Z,6.26
2023-04-27T20:25:55.941Z,6.22
2023-04-27T20:28:25.840Z,6.20
2023-04-27T20:30:55.352Z,6.18
2023-04-27T20:33:23.461Z,6.16
2023-04-27T20:35:55.517Z,6.12
2023-04-27T20:38:25.108Z,6.09
2023-04-27T20:40:54.176Z,6.06
2023-04-27T20:43:22.336Z,6.03
2023-04-27T20:45:50.424Z,5.97
2023-04-27T20:48:19.884Z,5.93
2023-04-27T20:50:48.065Z,5.86
2023-04-27T20:53:16.396Z,5.83
2023-04-27T20:55:46.328Z,5.77
2023-04-27T20:58:14.375Z,5.74
2023-04-27T21:00:42.553Z,5.71
2023-04-27T21:03:10.983Z,5.68
2023-04-27T21:05:41.087Z,5.63
2023-04-27T21:08:09.575Z,5.59
2023-04-27T21:10:37.645Z,5.56
2023-04-27T21:13:05.878Z,5.51
2023-04-27T21:15:34.049Z,5.47
2023-04-27T21:18:03.974Z,5.45
2023-04-27T21:20:32.265Z,5.42
2023-04-27T21:23:01.788Z,5.36
2023-04-27T21:25:29.867Z,5.29
2023-04-27T21:27:57.976Z,5.23
2023-04-27T21:30:26.049Z,5.22
2023-04-27T21:32:54.169Z,5.22
2023-04-27T21:35:22.661Z,5.23
2023-04-27T21:37:50.780Z,5.25
2023-04-27T21:40:20.902Z,5.22
2023-04-27T21:42:49.008Z,5.19
2023-04-27T21:45:17.107Z,5.19
2023-04-27T21:47:46.174Z,5.18
2023-04-27T21:50:14.384Z,5.17
2023-04-27T21:52:42.518Z,5.13
2023-04-27T21:55:11.056Z,5.10
2023-04-27T21:57:40.543Z,5.11
2023-04-27T22:00:13.674Z,5.13
2023-04-27T22:02:51.304Z,5.14
2023-04-27T22:05:20.935Z,5.10
2023-04-27T22:07:49.082Z,5.06
2023-04-27T22:10:17.165Z,4.93
2023-04-27T22:12:46.906Z,4.94
2023-04-27T22:15:15.624Z,4.93
2023-04-27T22:17:44.038Z,4.93
2023-04-27T22:20:12.791Z,4.89
2023-04-27T22:22:40.859Z,4.82
2023-04-27T22:25:09.687Z,4.83
2023-04-27T22:27:45.126Z,4.84
2023-04-27T22:30:16.685Z,4.80
2023-04-27T22:32:44.970Z,4.87
2023-04-27T22:35:24.767Z,4.99
2023-04-27T22:37:55.792Z,5.11
2023-04-27T22:40:24.440Z,5.22
2023-04-27T22:42:53.031Z,5.36
2023-04-27T22:45:22.777Z,5.42
2023-04-27T22:47:51.038Z,5.53
2023-04-27T22:50:19.328Z,5.62
2023-04-27T22:52:48.344Z,5.68
2023-04-27T22:55:16.753Z,5.69
2023-04-27T22:57:44.836Z,5.74
2023-04-27T23:00:13.617Z,5.79
2023-04-27T23:02:43.427Z,5.81
2023-04-27T23:05:12.423Z,5.81
2023-04-27T23:07:41.056Z,5.83
2023-04-27T23:10:10.431Z,5.89
2023-04-27T23:12:38.815Z,5.88
2023-04-27T23:15:07.993Z,5.92
2023-04-27T23:17:36.267Z,5.92
2023-04-27T23:20:20.467Z,5.92
2023-04-27T23:22:55.268Z,6.01
2023-04-27T23:25:23.418Z,6.12
2023-04-27T23:27:52.543Z,6.15
2023-04-27T23:30:21.540Z,6.18
2023-04-27T23:32:49.810Z,6.21
2023-04-27T23:35:20.097Z,6.26
2023-04-27T23:37:48.262Z,6.35
2023-04-27T23:40:16.517Z,6.38
2023-04-27T23:42:44.966Z,6.37
2023-04-27T23:45:13.689Z,6.37
2023-04-27T23:47:42.279Z,6.38
2023-04-27T23:50:13.472Z,6.38
2023-04-27T23:52:42.970Z,6.33
2023-04-27T23:55:11.354Z,6.32
2023-04-27T23:57:39.460Z,6.29
